Time;durP1;ratioP1;P1;durP2;ratioP2;P2;SDS_P1;SDS_P2;PMS_P1;PMS_P2;Temp;Humidity;BMP_temperature;BMP_pressure;BME280_temperature;BME280_humidity;BME280_pressure;Samples;Min_cycle;Max_cycle;Signal;HPM_P1;HPM_P2
2022/03/22 00:02:23;;;;;;;;;;;;;;;;;;5112324;28;19911;-77
2022/03/22 00:04:48;;;;;;;;;;;;;;;;;;5111763;28;19915;-77
2022/03/22 00:07:13;;;;;;;;;;;;;;;;;;5094191;28;19998;-77
2022/03/22 00:09:38;;;;;;;;;;;;;;;;;;5112349;28;20332;-77
2022/03/22 00:12:04;;;;;;;;;;;;;;;;;;5094198;28;20480;-77
2022/03/22 00:14:29;;;;;;;;;;;;;;;;;;5112276;28;20064;-77
2022/03/22 00:16:54;;;;;;;;;;;;;;;;;;5093596;28;19912;-77
2022/03/22 00:19:19;;;;;;;;;;;;;;;;;;5112216;28;19908;-77
2022/03/22 00:21:44;;;;;;;;;;;;;;;;;;5094106;28;19912;-77
2022/03/22 00:24:09;;;;;;;;;;;;;;;;;;5093859;28;20296;-77
2022/03/22 00:26:34;;;;;;;;;;;;;;;;;;5112437;28;19907;-77
2022/03/22 00:29:00;;;;;;;;;;;;;;;;;;5112421;28;19919;-77
2022/03/22 00:31:25;;;;;;;;;;;;;;;;;;5112185;28;19995;-77
2022/03/22 00:33:50;;;;;;;;;;;;;;;;;;5093445;28;19915;-77
2022/03/22 00:36:15;;;;;;;;;;;;;;;;;;5112276;28;19919;-77
2022/03/22 00:38:40;;;;;;;;;;;;;;;;;;5112273;28;19914;-77
2022/03/22 00:41:05;;;;;;;;;;;;;;;;;;5112341;28;19927;-77
2022/03/22 00:43:34;;;;;;;;;;;;;;;;;;5111729;28;20390;-77
2022/03/22 00:45:59;;;;;;;;;;;;;;;;;;5093647;28;19916;-77
2022/03/22 00:48:24;;;;;;;;;;;;;;;;;;5094308;28;20045;-77
2022/03/22 00:50:51;;;;;;;;;;;;;;;;;;5112166;28;19958;-77
2022/03/22 00:53:18;;;;;;;;;;;;;;;;;;5112084;28;19927;-77
2022/03/22 00:55:43;;;;;;;;;;;;;;;;;;5093795;28;19907;-77
2022/03/22 00:58:08;;;;;;;;;;;;;;;;;;5093401;28;19912;-77
2022/03/22 01:00:34;;;;;;;;;;;;;;;;;;5111771;28;19915;-77
2022/03/22 01:02:59;;;;;;;;;;;;;;;;;;5112149;28;19912;-77
2022/03/22 01:05:24;;;;;;;;;;;;;;;;;;5111912;28;19914;-77
2022/03/22 01:07:50;;;;;;;;;;;;;;;;;;5093481;28;19994;-77
2022/03/22 01:10:15;;;;;;;;;;;;;;;;;;5115525;28;20363;-77
2022/03/22 01:12:40;;;;;;;;;;;;;;;;;;5097227;28;19908;-77
2022/03/22 01:15:05;;;;;;;;;;;;;;;;;;5096658;28;19911;-77
2022/03/22 01:17:31;;;;;;;;;;;;;;;;;;5115468;28;19915;-77
2022/03/22 01:19:56;;;;;;;;;;;;;;;;;;5097751;28;19916;-77
2022/03/22 01:22:21;;;;;;;;;;;;;;;;;;5115606;28;20015;-77
2022/03/22 01:24:49;;;;;;;;;;;;;;;;;;5096645;28;20514;-77
2022/03/22 01:27:14;;;;;;;;;;;;;;;;;;5115263;28;20279;-77
2022/03/22 01:29:39;;;;;;;;;;;;;;;;;;5115059;28;19908;-77
2022/03/22 01:32:04;;;;;;;;;;;;;;;;;;5096837;28;20325;-77
2022/03/22 01:34:29;;;;;;;;;;;;;;;;;;5114717;28;19997;-77
2022/03/22 01:36:54;;;;;;;;;;;;;;;;;;5115417;28;20321;-77
2022/03/22 01:39:19;;;;;;;;;;;;;;;;;;5096664;28;19930;-77
2022/03/22 01:41:45;;;;;;;;;;;;;;;;;;5114739;28;19931;-77
2022/03/22 01:44:10;;;;;;;;;;;;;;;;;;5114518;28;19912;-77
2022/03/22 01:46:35;;;;;;;;;;;;;;;;;;5096622;28;19916;-77
2022/03/22 01:49:00;;;;;;;;;;;;;;;;;;5114828;28;19912;-77
2022/03/22 01:51:25;;;;;;;;;;;;;;;;;;5114880;28;20275;-77
2022/03/22 01:53:50;;;;;;;;;;;;;;;;;;5114360;28;19916;-77
2022/03/22 01:56:15;;;;;;;;;;;;;;;;;;5096425;28;19912;-77
2022/03/22 01:58:41;;;;;;;;;;;;;;;;;;5096239;28;20359;-77
2022/03/22 02:06:34;;;;;;;;;;;;;;;;;;5114643;28;20024;-77
2022/03/22 02:08:59;;;;;;;;;;;;;;;;;;5114390;28;20037;-77
2022/03/22 02:11:24;;;;;;;;;;;;;;;;;;5096364;28;20363;-77
2022/03/22 02:13:50;;;;;;;;;;;;;;;;;;5114061;28;19907;-77
2022/03/22 02:16:15;;;;;;;;;;;;;;;;;;5095944;28;19962;-77
2022/03/22 02:18:40;;;;;;;;;;;;;;;;;;5095744;28;19910;-77
2022/03/22 02:21:05;;;;;;;;;;;;;;;;;;5096060;28;20264;-77
2022/03/22 02:23:30;;;;;;;;;;;;;;;;;;5095181;28;19981;-77
2022/03/22 02:25:55;;;;;;;;;;;;;;;;;;5095855;28;19915;-77
2022/03/22 02:28:21;;;;;;;;;;;;;;;;;;5114214;28;19915;-77
2022/03/22 02:30:46;;;;;;;;;;;;;;;;;;5114016;28;20358;-77
2022/03/22 02:33:11;;;;;;;;;;;;;;;;;;5113592;28;19908;-77
2022/03/22 02:35:36;;;;;;;;;;;;;;;;;;5114316;28;20278;-77
2022/03/22 02:38:02;;;;;;;;;;;;;;;;;;5114307;28;19978;-77
2022/03/22 02:40:27;;;;;;;;;;;;;;;;;;5114015;28;19912;-77
2022/03/22 02:42:54;;;;;;;;;;;;;;;;;;5113926;28;19907;-77
2022/03/22 02:45:19;;;;;;;;;;;;;;;;;;5113700;28;19908;-77
2022/03/22 02:47:44;;;;;;;;;;;;;;;;;;5095627;28;19957;-77
2022/03/22 02:50:09;;;;;;;;;;;;;;;;;;5095684;28;19915;-77
2022/03/22 02:52:34;;;;;;;;;;;;;;;;;;5113636;28;19908;-77
2022/03/22 02:54:59;;;;;;;;;;;;;;;;;;5112883;28;20389;-77
2022/03/22 02:57:24;;;;;;;;;;;;;;;;;;5095426;28;19912;-77
2022/03/22 02:59:49;;;;;;;;;;;;;;;;;;5095364;28;19937;-77
2022/03/22 03:02:14;;;;;;;;;;;;;;;;;;5113331;28;19912;-77
2022/03/22 03:04:39;;;;;;;;;;;;;;;;;;5113287;28;19915;-77
2022/03/22 03:07:05;;;;;;;;;;;;;;;;;;5095218;28;19919;-77
2022/03/22 03:09:30;;;;;;;;;;;;;;;;;;5095270;28;20321;-77
2022/03/22 03:11:55;;;;;;;;;;;;;;;;;;5095070;28;20367;-77
2022/03/22 03:14:38;;;;;;;;;;;;;;;;;;5094662;28;19908;-77
2022/03/22 03:17:03;;;;;;;;;;;;;;;;;;5094821;28;19916;-77
2022/03/22 03:19:29;;;;;;;;;;;;;;;;;;5113103;28;19908;-77
2022/03/22 03:21:54;;;;;;;;;;;;;;;;;;5107418;28;20002;-77
2022/03/22 03:24:19;;;;;;;;;;;;;;;;;;5071572;28;19915;-77
2022/03/22 03:26:44;;;;;;;;;;;;;;;;;;5071133;28;19915;-77
2022/03/22 03:29:09;;;;;;;;;;;;;;;;;;5071350;28;20028;-77
2022/03/22 03:31:34;;;;;;;;;;;;;;;;;;5070515;28;19933;-77
2022/03/22 03:33:59;;;;;;;;;;;;;;;;;;5072043;28;20424;-77
2022/03/22 03:36:24;;;;;;;;;;;;;;;;;;5070982;28;19965;-77
2022/03/22 03:38:50;;;;;;;;;;;;;;;;;;5071099;28;19909;-77
2022/03/22 03:47:03;;;;;;;;;;;;;;;;;;5071727;28;20383;-77
2022/03/22 03:47:07;;;;;;;;;;;;;;;;;;5071714;28;20003;-77
2022/03/22 03:49:32;;;;;;;;;;;;;;;;;;5070941;28;20272;-77
2022/03/22 03:51:57;;;;;;;;;;;;;;;;;;5072148;28;20360;-77
2022/03/22 03:54:22;;;;;;;;;;;;;;;;;;5070661;28;19916;-77
2022/03/22 03:56:47;;;;;;;;;;;;;;;;;;5072281;28;19923;-77
2022/03/22 03:59:12;;;;;;;;;;;;;;;;;;5070548;28;19919;-77
2022/03/22 04:01:37;;;;;;;;;;;;;;;;;;5071016;28;19913;-77
2022/03/22 04:04:03;;;;;;;;;;;;;;;;;;5070636;28;19950;-77
2022/03/22 04:06:28;;;;;;;;;;;;;;;;;;5070909;28;19915;-77
2022/03/22 04:08:54;;;;;;;;;;;;;;;;;;5072182;28;19909;-77
2022/03/22 04:11:20;;;;;;;;;;;;;;;;;;5072066;28;19909;-77
2022/03/22 04:13:45;;;;;;;;;;;;;;;;;;5071485;28;20007;-77
2022/03/22 04:16:10;;;;;;;;;;;;;;;;;;5071989;28;19962;-77
2022/03/22 04:18:35;;;;;;;;;;;;;;;;;;5071375;28;19958;-77
2022/03/22 04:21:01;;;;;;;;;;;;;;;;;;5071436;28;19905;-77
2022/03/22 04:23:26;;;;;;;;;;;;;;;;;;5070229;28;19913;-77
2022/03/22 04:25:51;;;;;;;;;;;;;;;;;;5071430;28;20407;-77
2022/03/22 04:33:44;;;;;;;;;;;;;;;;;;5071283;28;19915;-77
2022/03/22 04:36:11;;;;;;;;;;;;;;;;;;5070260;28;19905;-77
2022/03/22 04:38:36;;;;;;;;;;;;;;;;;;5071899;28;19912;-77
2022/03/22 04:41:01;;;;;;;;;;;;;;;;;;5070548;28;19915;-77
2022/03/22 04:43:27;;;;;;;;;;;;;;;;;;5073327;28;19969;-77
2022/03/22 04:45:52;;;;;;;;;;;;;;;;;;5074086;28;19923;-77
2022/03/22 04:48:17;;;;;;;;;;;;;;;;;;5075353;28;19912;-77
2022/03/22 04:50:42;;;;;;;;;;;;;;;;;;5073989;28;19952;-77
2022/03/22 04:58:34;;;;;;;;;;;;;;;;;;5075101;28;19913;-77
2022/03/22 05:01:00;;;;;;;;;;;;;;;;;;5075030;28;19923;-77
2022/03/22 05:03:25;;;;;;;;;;;;;;;;;;5073497;28;19975;-77
2022/03/22 05:08:33;;;;;;;;;;;;;;;;;;5075198;28;19954;-77
2022/03/22 05:10:59;;;;;;;;;;;;;;;;;;5073606;28;19908;-77
2022/03/22 05:13:24;;;;;;;;;;;;;;;;;;5073164;28;19909;-77
2022/03/22 05:15:49;;;;;;;;;;;;;;;;;;5074517;28;19909;-77
2022/03/22 05:18:14;;;;;;;;;;;;;;;;;;5073705;28;20070;-77
2022/03/22 05:20:39;;;;;;;;;;;;;;;;;;5073707;28;19920;-77
2022/03/22 05:23:04;;;;;;;;;;;;;;;;;;5073336;28;19948;-77
2022/03/22 05:25:31;;;;;;;;;;;;;;;;;;5074417;28;19991;-77
2022/03/22 05:27:56;;;;;;;;;;;;;;;;;;5074705;28;19916;-77
2022/03/22 05:30:21;;;;;;;;;;;;;;;;;;5074215;28;20046;-77
2022/03/22 05:32:46;;;;;;;;;;;;;;;;;;5073013;28;19912;-77
2022/03/22 05:35:12;;;;;;;;;;;;;;;;;;5074421;28;19997;-77
2022/03/22 05:37:37;;;;;;;;;;;;;;;;;;5072871;28;20010;-77
2022/03/22 05:40:02;;;;;;;;;;;;;;;;;;5072818;28;20378;-77
2022/03/22 05:42:27;;;;;;;;;;;;;;;;;;5073056;28;19915;-77
2022/03/22 05:44:52;;;;;;;;;;;;;;;;;;5073324;28;19915;-77
2022/03/22 05:47:17;;;;;;;;;;;;;;;;;;5072859;28;20033;-77
2022/03/22 05:49:42;;;;;;;;;;;;;;;;;;5072780;28;20379;-77
2022/03/22 05:52:07;;;;;;;;;;;;;;;;;;5074355;28;20450;-77
2022/03/22 05:54:32;;;;;;;;;;;;;;;;;;5072768;28;19909;-77
2022/03/22 05:56:57;;;;;;;;;;;;;;;;;;5074078;28;19912;-77
2022/03/22 05:59:23;;;;;;;;;;;;;;;;;;5073310;28;19909;-77
2022/03/22 06:01:48;;;;;;;;;;;;;;;;;;5072806;28;19958;-77
2022/03/22 06:04:13;;;;;;;;;;;;;;;;;;5072477;28;20325;-77
2022/03/22 06:06:38;;;;;;;;;;;;;;;;;;5072692;28;19987;-77
2022/03/22 06:09:03;;;;;;;;;;;;;;;;;;5073629;28;19908;-77
2022/03/22 06:11:33;;;;;;;;;;;;;;;;;;5072238;28;19915;-77
2022/03/22 06:13:58;;;;;;;;;;;;;;;;;;5071835;28;19908;-77
2022/03/22 06:16:23;;;;;;;;;;;;;;;;;;5072085;28;19923;-77
2022/03/22 06:18:48;;;;;;;;;;;;;;;;;;5072420;28;20256;-77
2022/03/22 06:21:14;;;;;;;;;;;;;;;;;;5072316;28;19908;-77
2022/03/22 06:23:39;;;;;;;;;;;;;;;;;;5072873;28;19909;-77
2022/03/22 06:26:04;;;;;;;;;;;;;;;;;;5073251;28;20315;-77
2022/03/22 06:28:29;;;;;;;;;;;;;;;;;;5073012;28;19912;-77
2022/03/22 06:30:54;;;;;;;;;;;;;;;;;;5073164;28;19909;-77
2022/03/22 06:33:22;;;;;;;;;;;;;;;;;;5071860;28;20019;-77
2022/03/22 06:35:47;;;;;;;;;;;;;;;;;;5073667;28;19919;-77
2022/03/22 06:38:12;;;;;;;;;;;;;;;;;;5072086;28;20330;-77
2022/03/22 06:40:39;;;;;;;;;;;;;;;;;;5071865;28;19909;-77
2022/03/22 06:43:04;;;;;;;;;;;;;;;;;;5071532;28;19962;-77
2022/03/22 06:45:29;;;;;;;;;;;;;;;;;;5071411;28;19917;-77
2022/03/22 06:47:54;;;;;;;;;;;;;;;;;;5089018;28;20376;-77
2022/03/22 06:50:19;;;;;;;;;;;;;;;;;;5078499;28;19960;-77
2022/03/22 06:52:44;;;;;;;;;;;;;;;;;;5086585;28;20419;-77
2022/03/22 06:55:10;;;;;;;;;;;;;;;;;;5081934;28;19912;-77
2022/03/22 06:57:35;;;;;;;;;;;;;;;;;;5066662;28;19916;-77
2022/03/22 07:00:00;;;;;;;;;;;;;;;;;;5056366;28;19919;-77
2022/03/22 07:02:25;;;;;;;;;;;;;;;;;;5094581;28;20326;-77
2022/03/22 07:04:50;;;;;;;;;;;;;;;;;;5095790;28;19904;-77
2022/03/22 07:07:18;;;;;;;;;;;;;;;;;;5089909;28;19920;-77
2022/03/22 07:09:43;;;;;;;;;;;;;;;;;;5073033;28;19947;-77
2022/03/22 07:12:09;;;;;;;;;;;;;;;;;;5081498;28;19958;-77
2022/03/22 07:14:34;;;;;;;;;;;;;;;;;;5094245;28;20003;-77
2022/03/22 07:16:59;;;;;;;;;;;;;;;;;;5088188;28;20261;-77
2022/03/22 07:19:24;;;;;;;;;;;;;;;;;;5074174;28;19912;-77
2022/03/22 07:21:49;;;;;;;;;;;;;;;;;;5075518;28;19912;-77
2022/03/22 07:24:15;;;;;;;;;;;;;;;;;;5094087;28;20276;-78
2022/03/22 07:26:43;;;;;;;;;;;;;;;;;;5094439;28;19919;-77
2022/03/22 07:29:08;;;;;;;;;;;;;;;;;;5088642;28;19912;-78
2022/03/22 07:31:40;;;;;;;;;;;;;;;;;;5073719;28;19916;-77
2022/03/22 07:34:06;;;;;;;;;;;;;;;;;;5073374;28;19909;-77
2022/03/22 07:36:31;;;;;;;;;;;;;;;;;;5054455;28;20257;-77
2022/03/22 07:38:56;;;;;;;;;;;;;;;;;;5072386;28;20077;-77
2022/03/22 07:41:21;;;;;;;;;;;;;;;;;;5071973;28;20003;-77
2022/03/22 07:43:46;;;;;;;;;;;;;;;;;;5057684;28;19917;-77
2022/03/22 07:46:11;;;;;;;;;;;;;;;;;;5065790;28;19916;-77
2022/03/22 07:48:36;;;;;;;;;;;;;;;;;;5074267;28;19912;-77
2022/03/22 07:53:45;;;;;;;;;;;;;;;;;;5092502;28;20374;-77
2022/03/22 07:56:10;;;;;;;;;;;;;;;;;;5092423;28;20352;-77
2022/03/22 07:58:35;;;;;;;;;;;;;;;;;;5092197;28;19908;-77
2022/03/22 08:01:00;;;;;;;;;;;;;;;;;;5090437;28;20212;-77
2022/03/22 08:03:26;;;;;;;;;;;;;;;;;;5092279;28;19920;-77
2022/03/22 08:05:51;;;;;;;;;;;;;;;;;;5091896;28;20274;-77
2022/03/22 08:08:17;;;;;;;;;;;;;;;;;;5091815;28;20379;-78
2022/03/22 08:10:44;;;;;;;;;;;;;;;;;;5074010;28;19908;-77
2022/03/22 08:13:09;;;;;;;;;;;;;;;;;;5073986;28;19912;-77
2022/03/22 08:15:34;;;;;;;;;;;;;;;;;;5097878;28;19912;-78
2022/03/22 08:17:59;;;;;;;;;;;;;;;;;;5088775;28;19916;-78
2022/03/22 08:20:27;;;;;;;;;;;;;;;;;;5098592;28;19912;-78
2022/03/22 08:22:52;;;;;;;;;;;;;;;;;;5090877;28;19951;-78
2022/03/22 08:25:17;;;;;;;;;;;;;;;;;;5059507;28;19956;-78
2022/03/22 08:27:43;;;;;;;;;;;;;;;;;;5077219;28;20271;-78
2022/03/22 08:30:09;;;;;;;;;;;;;;;;;;5076695;28;19994;-78
2022/03/22 08:32:34;;;;;;;;;;;;;;;;;;5059243;28;19916;-78
2022/03/22 08:34:59;;;;;;;;;;;;;;;;;;5092725;28;19920;-78
2022/03/22 08:37:24;;;;;;;;;;;;;;;;;;5117748;28;19911;-78
2022/03/22 08:39:49;;;;;;;;;;;;;;;;;;5117840;28;19912;-78
2022/03/22 08:42:15;;;;;;;;;;;;;;;;;;5117564;28;20278;-78
2022/03/22 08:44:40;;;;;;;;;;;;;;;;;;5098998;28;19908;-78
2022/03/22 08:47:06;;;;;;;;;;;;;;;;;;5117378;28;20335;-78
2022/03/22 08:49:31;;;;;;;;;;;;;;;;;;5106211;28;19916;-78
2022/03/22 08:51:57;;;;;;;;;;;;;;;;;;5058828;28;20014;-78
2022/03/22 08:54:22;;;;;;;;;;;;;;;;;;5076797;28;19995;-78
2022/03/22 08:56:47;;;;;;;;;;;;;;;;;;5076615;28;19916;-78
2022/03/22 08:59:12;;;;;;;;;;;;;;;;;;5058837;28;19978;-78
2022/03/22 09:01:37;;;;;;;;;;;;;;;;;;5077146;28;19999;-78
2022/03/22 09:06:46;;;;;;;;;;;;;;;;;;5096891;28;19923;-78
2022/03/22 09:09:13;;;;;;;;;;;;;;;;;;5078555;28;19994;-78
2022/03/22 09:11:38;;;;;;;;;;;;;;;;;;5096868;28;19915;-78
2022/03/22 09:14:03;;;;;;;;;;;;;;;;;;5097154;28;19998;-79
2022/03/22 09:16:28;;;;;;;;;;;;;;;;;;5096682;28;19908;-78
2022/03/22 09:18:53;;;;;;;;;;;;;;;;;;5096415;28;19915;-78
2022/03/22 09:21:20;;;;;;;;;;;;;;;;;;5078521;28;20279;-78
2022/03/22 09:23:45;;;;;;;;;;;;;;;;;;5078998;28;19915;-78
2022/03/22 09:26:10;;;;;;;;;;;;;;;;;;5076221;28;20295;-78
2022/03/22 09:28:36;;;;;;;;;;;;;;;;;;5080431;28;19920;-78
2022/03/22 09:31:01;;;;;;;;;;;;;;;;;;5095619;28;20366;-79
2022/03/22 09:33:26;;;;;;;;;;;;;;;;;;5083969;28;20007;-78
2022/03/22 09:35:53;;;;;;;;;;;;;;;;;;5087019;28;19916;-78
2022/03/22 09:38:19;;;;;;;;;;;;;;;;;;5057396;28;19913;-78
2022/03/22 09:40:44;;;;;;;;;;;;;;;;;;5058061;28;19915;-78
2022/03/22 09:43:09;;;;;;;;;;;;;;;;;;5057645;28;19915;-78
2022/03/22 09:45:34;;;;;;;;;;;;;;;;;;5069379;28;19908;-79
2022/03/22 09:48:00;;;;;;;;;;;;;;;;;;5075693;28;20370;-79
2022/03/22 09:51:44;;;;;;;;;;;;;;;;;;5087279;28;19913;-79
2022/03/22 09:53:10;;;;;;;;;;;;;;;;;;5095996;28;19912;-79
2022/03/22 09:55:35;;;;;;;;;;;;;;;;;;5077344;28;19908;-79
2022/03/22 09:58:01;;;;;;;;;;;;;;;;;;5095824;28;19912;-79
2022/03/22 10:00:26;;;;;;;;;;;;;;;;;;5077494;28;19923;-79
2022/03/22 10:02:51;;;;;;;;;;;;;;;;;;5096055;28;20268;-79
2022/03/22 10:05:17;;;;;;;;;;;;;;;;;;5089027;28;19913;-79
2022/03/22 10:07:42;;;;;;;;;;;;;;;;;;5075338;28;20400;-79
2022/03/22 10:10:07;;;;;;;;;;;;;;;;;;5075513;28;19913;-79
2022/03/22 10:12:32;;;;;;;;;;;;;;;;;;5075486;28;19909;-79
2022/03/22 10:14:57;;;;;;;;;;;;;;;;;;5057149;28;19914;-79
2022/03/22 10:17:22;;;;;;;;;;;;;;;;;;5088260;28;19967;-79
2022/03/22 10:19:47;;;;;;;;;;;;;;;;;;5095616;28;19909;-79
2022/03/22 10:22:12;;;;;;;;;;;;;;;;;;5095090;28;20070;-78
2022/03/22 10:24:37;;;;;;;;;;;;;;;;;;5095296;28;19960;-79
2022/03/22 10:27:02;;;;;;;;;;;;;;;;;;5095195;28;19908;-79
2022/03/22 10:29:28;;;;;;;;;;;;;;;;;;5077007;28;20521;-79
2022/03/22 10:31:53;;;;;;;;;;;;;;;;;;5069572;28;19916;-79
2022/03/22 10:34:18;;;;;;;;;;;;;;;;;;5083672;28;19908;-79
2022/03/22 10:36:43;;;;;;;;;;;;;;;;;;5074574;28;19963;-79
2022/03/22 10:39:08;;;;;;;;;;;;;;;;;;5058559;28;19909;-79
2022/03/22 10:41:35;;;;;;;;;;;;;;;;;;5076441;28;19908;-79
2022/03/22 10:44:00;;;;;;;;;;;;;;;;;;5094925;28;19912;-79
2022/03/22 10:46:25;;;;;;;;;;;;;;;;;;5076582;28;19942;-79
2022/03/22 10:48:51;;;;;;;;;;;;;;;;;;5076624;28;20010;-79
2022/03/22 10:51:16;;;;;;;;;;;;;;;;;;5076421;28;19924;-79
2022/03/22 10:53:41;;;;;;;;;;;;;;;;;;5094905;28;19908;-79
2022/03/22 10:56:06;;;;;;;;;;;;;;;;;;5094904;28;19915;-79
2022/03/22 10:58:31;;;;;;;;;;;;;;;;;;5076631;28;19965;-79
2022/03/22 11:00:56;;;;;;;;;;;;;;;;;;5094607;28;19916;-78
2022/03/22 11:03:21;;;;;;;;;;;;;;;;;;5094730;28;19908;-79
2022/03/22 11:05:46;;;;;;;;;;;;;;;;;;5077100;28;20279;-79
2022/03/22 11:08:12;;;;;;;;;;;;;;;;;;5094506;28;19915;-79
2022/03/22 11:10:37;;;;;;;;;;;;;;;;;;5076284;28;19955;-79
2022/03/22 11:13:02;;;;;;;;;;;;;;;;;;5094560;28;20337;-79
2022/03/22 11:15:27;;;;;;;;;;;;;;;;;;5094039;28;19905;-79
2022/03/22 11:17:52;;;;;;;;;;;;;;;;;;5076550;28;20346;-79
2022/03/22 11:20:17;;;;;;;;;;;;;;;;;;5096574;28;20272;-79
2022/03/22 11:22:42;;;;;;;;;;;;;;;;;;5076036;28;19927;-79
2022/03/22 11:25:07;;;;;;;;;;;;;;;;;;5094464;28;19908;-79
2022/03/22 11:27:33;;;;;;;;;;;;;;;;;;5077863;28;20371;-79
2022/03/22 11:29:58;;;;;;;;;;;;;;;;;;5113258;28;20040;-79
2022/03/22 11:35:07;;;;;;;;;;;;;;;;;;5113227;28;20385;-79
2022/03/22 11:37:32;;;;;;;;;;;;;;;;;;5094702;28;19911;-79
2022/03/22 11:42:41;;;;;;;;;;;;;;;;;;5092475;28;19915;-79
2022/03/22 11:45:07;;;;;;;;;;;;;;;;;;5092344;28;20132;-79
2022/03/22 11:47:32;;;;;;;;;;;;;;;;;;5092367;28;19938;-79
2022/03/22 11:49:57;;;;;;;;;;;;;;;;;;5092289;28;20272;-79
2022/03/22 11:52:22;;;;;;;;;;;;;;;;;;5088586;28;20274;-79
2022/03/22 11:54:47;;;;;;;;;;;;;;;;;;5087621;28;19928;-79
2022/03/22 11:57:12;;;;;;;;;;;;;;;;;;5095840;28;20264;-79
2022/03/22 11:59:37;;;;;;;;;;;;;;;;;;5055455;28;19908;-79
2022/03/22 12:02:02;;;;;;;;;;;;;;;;;;5072170;28;19912;-79
2022/03/22 12:04:28;;;;;;;;;;;;;;;;;;5069693;28;19920;-79
2022/03/22 12:06:53;;;;;;;;;;;;;;;;;;5074087;28;19943;-80
2022/03/22 12:09:18;;;;;;;;;;;;;;;;;;5073565;28;20319;-79
2022/03/22 12:11:43;;;;;;;;;;;;;;;;;;5058401;28;20452;-79
2022/03/22 12:14:08;;;;;;;;;;;;;;;;;;5089622;28;19916;-79
2022/03/22 12:16:33;;;;;;;;;;;;;;;;;;5089214;28;19965;-79
2022/03/22 12:18:59;;;;;;;;;;;;;;;;;;5079058;28;19997;-79
2022/03/22 12:21:24;;;;;;;;;;;;;;;;;;5065256;28;19923;-79
2022/03/22 12:23:49;;;;;;;;;;;;;;;;;;5075664;28;20374;-79
2022/03/22 12:26:14;;;;;;;;;;;;;;;;;;5078688;28;19919;-79
2022/03/22 12:28:40;;;;;;;;;;;;;;;;;;5073861;28;19954;-79
2022/03/22 12:31:05;;;;;;;;;;;;;;;;;;5089670;28;20294;-79
2022/03/22 12:33:30;;;;;;;;;;;;;;;;;;5113248;28;19961;-79
2022/03/22 12:35:56;;;;;;;;;;;;;;;;;;5107304;28;19924;-79
2022/03/22 12:38:21;;;;;;;;;;;;;;;;;;5056917;28;19916;-79
2022/03/22 12:40:46;;;;;;;;;;;;;;;;;;5073066;28;19916;-79
2022/03/22 12:43:19;;;;;;;;;;;;;;;;;;5062634;28;19999;-79
2022/03/22 12:45:44;;;;;;;;;;;;;;;;;;5098548;28;20390;-79
2022/03/22 12:48:09;;;;;;;;;;;;;;;;;;5063748;28;19920;-79
2022/03/22 12:50:34;;;;;;;;;;;;;;;;;;5094879;28;19915;-79
2022/03/22 12:52:59;;;;;;;;;;;;;;;;;;5069025;28;19916;-79
2022/03/22 12:55:27;;;;;;;;;;;;;;;;;;5073295;28;19908;-79
2022/03/22 12:57:56;;;;;;;;;;;;;;;;;;5054035;28;19916;-79
2022/03/22 13:00:21;;;;;;;;;;;;;;;;;;5053557;28;19967;-79
2022/03/22 13:02:47;;;;;;;;;;;;;;;;;;5090029;28;20443;-79
2022/03/22 13:05:12;;;;;;;;;;;;;;;;;;5095641;28;19995;-79
2022/03/22 13:07:37;;;;;;;;;;;;;;;;;;5095570;28;19920;-79
2022/03/22 13:12:46;;;;;;;;;;;;;;;;;;5095487;28;20156;-79
2022/03/22 13:15:12;;;;;;;;;;;;;;;;;;5095012;28;19985;-79
2022/03/22 13:17:37;;;;;;;;;;;;;;;;;;5080027;28;20350;-79
2022/03/22 13:20:04;;;;;;;;;;;;;;;;;;5074549;28;20007;-79
2022/03/22 13:22:29;;;;;;;;;;;;;;;;;;5057739;28;19916;-79
2022/03/22 13:24:55;;;;;;;;;;;;;;;;;;5090195;28;19958;-79
2022/03/22 13:27:20;;;;;;;;;;;;;;;;;;5075881;28;19915;-79
2022/03/22 13:29:45;;;;;;;;;;;;;;;;;;5061433;28;19918;-79
2022/03/22 13:32:10;;;;;;;;;;;;;;;;;;5083067;28;20268;-79
2022/03/22 13:34:35;;;;;;;;;;;;;;;;;;5077008;28;19912;-80
2022/03/22 13:37:00;;;;;;;;;;;;;;;;;;5078369;28;20387;-80
2022/03/22 13:39:25;;;;;;;;;;;;;;;;;;5104881;28;19957;-79
2022/03/22 13:41:50;;;;;;;;;;;;;;;;;;5077312;28;19973;-79
2022/03/22 13:44:16;;;;;;;;;;;;;;;;;;5106863;28;19912;-80
2022/03/22 13:46:41;;;;;;;;;;;;;;;;;;5089995;28;19916;-79
2022/03/22 13:49:06;;;;;;;;;;;;;;;;;;5108975;28;19912;-79
2022/03/22 13:51:34;;;;;;;;;;;;;;;;;;5095569;28;19908;-79
2022/03/22 13:54:00;;;;;;;;;;;;;;;;;;5093058;28;20375;-79
2022/03/22 13:56:25;;;;;;;;;;;;;;;;;;5084983;28;19918;-80
2022/03/22 13:58:50;;;;;;;;;;;;;;;;;;5077527;28;19912;-80
2022/03/22 14:01:16;;;;;;;;;;;;;;;;;;5095841;28;20344;-79
2022/03/22 14:03:41;;;;;;;;;;;;;;;;;;5068662;28;20269;-79
2022/03/22 14:06:06;;;;;;;;;;;;;;;;;;5057031;28;19919;-79
2022/03/22 14:08:32;;;;;;;;;;;;;;;;;;5081204;28;20367;-80
2022/03/22 14:10:58;;;;;;;;;;;;;;;;;;5095807;28;19923;-79
2022/03/22 14:13:23;;;;;;;;;;;;;;;;;;5081477;28;19919;-79
2022/03/22 14:15:48;;;;;;;;;;;;;;;;;;5074480;28;19908;-80
2022/03/22 14:18:14;;;;;;;;;;;;;;;;;;5057007;28;20248;-79
2022/03/22 14:20:39;;;;;;;;;;;;;;;;;;5075348;28;19909;-79
2022/03/22 14:23:04;;;;;;;;;;;;;;;;;;5108510;28;19916;-80
2022/03/22 14:25:30;;;;;;;;;;;;;;;;;;5078731;28;19911;-79
2022/03/22 14:27:56;;;;;;;;;;;;;;;;;;5078706;28;19979;-79
2022/03/22 14:30:21;;;;;;;;;;;;;;;;;;5090570;28;19923;-80
2022/03/22 14:32:46;;;;;;;;;;;;;;;;;;5083918;28;19966;-80
2022/03/22 14:37:55;;;;;;;;;;;;;;;;;;5082935;28;19923;-79
2022/03/22 14:40:21;;;;;;;;;;;;;;;;;;5105189;28;19908;-79
2022/03/22 14:42:46;;;;;;;;;;;;;;;;;;5096754;28;19951;-79
2022/03/22 14:45:12;;;;;;;;;;;;;;;;;;5096127;28;19908;-90
2022/03/22 14:47:38;;;;;;;;;;;;;;;;;;5109488;28;19961;-89
2022/03/22 14:50:03;;;;;;;;;;;;;;;;;;5094057;28;19916;-89
2022/03/22 14:55:12;;;;;;;;;;;;;;;;;;5094774;28;19923;-89
2022/03/22 15:00:21;;;;;;;;;;;;;;;;;;5080080;28;19919;-88
2022/03/22 15:02:46;;;;;;;;;;;;;;;;;;5079625;28;19911;-89
2022/03/22 15:05:31;;;;;;;;;;;;;;;;;;5067320;28;19916;-89
2022/03/22 15:07:56;;;;;;;;;;;;;;;;;;5097398;28;19915;-89
2022/03/22 15:10:21;;;;;;;;;;;;;;;;;;5101824;28;19965;-89
2022/03/22 15:12:46;;;;;;;;;;;;;;;;;;5096674;28;19956;-89
2022/03/22 15:15:11;;;;;;;;;;;;;;;;;;5114217;28;19957;-89
2022/03/22 15:17:36;;;;;;;;;;;;;;;;;;5082589;28;20275;-89
2022/03/22 15:20:02;;;;;;;;;;;;;;;;;;5074766;28;19915;-89
2022/03/22 15:22:28;;;;;;;;;;;;;;;;;;5074740;28;19919;-89
2022/03/22 15:24:53;;;;;;;;;;;;;;;;;;5074120;28;19916;-89
2022/03/22 15:27:18;;;;;;;;;;;;;;;;;;5073434;28;19999;-90
2022/03/22 15:29:44;;;;;;;;;;;;;;;;;;5092536;28;19911;-89
2022/03/22 15:32:09;;;;;;;;;;;;;;;;;;5075590;28;19912;-89
2022/03/22 15:34:34;;;;;;;;;;;;;;;;;;5074035;28;19916;-90
2022/03/22 15:36:59;;;;;;;;;;;;;;;;;;5072929;28;20330;-90
2022/03/22 15:39:24;;;;;;;;;;;;;;;;;;5107546;28;19993;-89
2022/03/22 15:41:50;;;;;;;;;;;;;;;;;;5092205;28;20006;-90
2022/03/22 15:44:15;;;;;;;;;;;;;;;;;;5073941;28;19912;-89
2022/03/22 15:46:42;;;;;;;;;;;;;;;;;;5073537;28;19917;-89
2022/03/22 15:49:07;;;;;;;;;;;;;;;;;;5055752;28;19912;-88
2022/03/22 15:51:32;;;;;;;;;;;;;;;;;;5059460;28;19920;-89
2022/03/22 15:53:57;;;;;;;;;;;;;;;;;;5073927;28;19915;-88
2022/03/22 15:56:23;;;;;;;;;;;;;;;;;;5073652;28;19970;-89
2022/03/22 15:58:48;;;;;;;;;;;;;;;;;;5055816;28;20014;-88
2022/03/22 16:01:13;;;;;;;;;;;;;;;;;;5057167;28;20007;-89
2022/03/22 16:03:38;;;;;;;;;;;;;;;;;;5076121;28;20049;-89
2022/03/22 16:06:03;;;;;;;;;;;;;;;;;;5075710;28;20352;-89
2022/03/22 16:08:29;;;;;;;;;;;;;;;;;;5075722;28;19930;-88
2022/03/22 16:10:54;;;;;;;;;;;;;;;;;;5075780;28;20371;-89
2022/03/22 16:13:19;;;;;;;;;;;;;;;;;;5076412;28;20549;-89
2022/03/22 16:15:46;;;;;;;;;;;;;;;;;;5075639;28;20429;-89
2022/03/22 16:18:11;;;;;;;;;;;;;;;;;;5056420;28;19920;-88
2022/03/22 16:20:36;;;;;;;;;;;;;;;;;;5055529;28;19909;-89
2022/03/22 16:23:01;;;;;;;;;;;;;;;;;;5089750;28;19912;-88
2022/03/22 16:25:26;;;;;;;;;;;;;;;;;;5093077;28;19974;-88
2022/03/22 16:27:51;;;;;;;;;;;;;;;;;;5075610;28;19957;-88
2022/03/22 16:30:16;;;;;;;;;;;;;;;;;;5093972;28;19924;-88
2022/03/22 16:38:09;;;;;;;;;;;;;;;;;;5101797;28;19923;-89
2022/03/22 16:40:34;;;;;;;;;;;;;;;;;;5097532;28;19909;-88
2022/03/22 16:43:00;;;;;;;;;;;;;;;;;;5090865;28;20320;-89
2022/03/22 16:45:25;;;;;;;;;;;;;;;;;;5099489;28;19919;-87
2022/03/22 16:47:50;;;;;;;;;;;;;;;;;;5080420;28;19939;-88
2022/03/22 16:50:16;;;;;;;;;;;;;;;;;;5078334;28;19916;-88
2022/03/22 16:52:43;;;;;;;;;;;;;;;;;;5083930;28;19919;-89
2022/03/22 16:55:09;;;;;;;;;;;;;;;;;;5079603;28;19912;-89
2022/03/22 16:57:34;;;;;;;;;;;;;;;;;;5097076;28;19934;-89
2022/03/22 16:59:59;;;;;;;;;;;;;;;;;;5078908;28;19912;-89
2022/03/22 17:02:24;;;;;;;;;;;;;;;;;;5078928;28;19916;-89
2022/03/22 17:04:51;;;;;;;;;;;;;;;;;;5096759;28;19912;-88
2022/03/22 17:07:16;;;;;;;;;;;;;;;;;;5081824;28;19919;-88
2022/03/22 17:09:41;;;;;;;;;;;;;;;;;;5115824;28;19911;-87
2022/03/22 17:12:06;;;;;;;;;;;;;;;;;;5097577;28;20340;-88
2022/03/22 17:14:34;;;;;;;;;;;;;;;;;;5088973;28;20446;-88
2022/03/22 17:16:59;;;;;;;;;;;;;;;;;;5078381;28;20280;-88
2022/03/22 17:19:25;;;;;;;;;;;;;;;;;;5078715;28;19999;-88
2022/03/22 17:21:51;;;;;;;;;;;;;;;;;;5097206;28;19923;-87
2022/03/22 17:24:16;;;;;;;;;;;;;;;;;;5097016;28;19912;-88